General Aviation Weather

Text Reports

Enter one or more of the following location identifiers separated by a space:

Zip Code, Four-Character ICAO or Three-Character IATA airport codes.

METAR - Aviation Routine Weather Report
ESPA - Lulea-Kallax,
Updated at 5:50 AM GMT on August 01, 2015 (7:50 AM CEST):
METAR ESPA 010550Z 35007KT 320V020 CAVOK 17/13 Q1004
TAF - Terminal Area Forecast
ESPA - Lulea-Kallax,
Updated at 5:50 AM GMT on August 01, 2015 (7:50 AM CEST):
TAF ESPA 010530Z 0106/0115 36004KT CAVOK TEMPO 0109/0115 SHRA
BKN030CB=
Decoded:
ID: ESPA   Kallax/Lulea (A, SN
REPORT TIME: 29 20:30
VALID TIME: 29 July AT 21:00Z to 29 July AT 23:00Z.
INITIAL WX
   WINDS: 300 AT 5
   VISIBILITY: 999.0 MILES
   COMMENTS: 000 FTUS80 KWBC 292033 AAB TAF AMD KTEB 292032Z 2921/3018 18011KT P6SM FEW060 SCT250 
NEW WX STARTING: 02:00Z
   WINDS: 200 AT 6
   VISIBILITY: >6.0 MILES
   CLOUDS: 60 FEW
   CLOUDS: 250 SCT
NEW WX STARTING: 11:00Z
   WINDS: 210 AT 4
   VISIBILITY: 5.0 MILES
   WEATHER: HZ
   CLOUDS: 30 FEW
   CLOUDS: 50 SCT
NEW WX STARTING: 15:00Z
   WINDS: 200 AT 10
   VISIBILITY: >6.0 MILES
   CLOUDS: 30 SCT
   CLOUDS: 50 BKN
   COMMENTS: = 

INITIAL WX
   WEATHER: TAF_AMD_CYQG
   COMMENTS: 292013Z 2920/3018 20010G20KT P6SM -SHRA BKN040 OVC080 
TEMPORARY WX FROM 20Z TO 23Z
   WIND: VARIABLE AT 20 GUST 30
   VISIBILITY: 1.0 MILES
   WEATHER: +TSRA_BR
   CLOUDS: 20 BKN
   CLOUDS: 40 OVC WITH CB
NEW WX STARTING: 00:00Z
   WINDS: 280 AT 10 GUST 20
   VISIBILITY: >6.0 MILES
   CLOUDS: 20 FEW
   CLOUDS: 40 BKN
WX BECOMING FROM 00Z TO 02Z
   WINDS: 280 AT 10
   CLOUDS: CLEAR
NEW WX STARTING: 06:00Z
   WINDS: 280 AT 8
   VISIBILITY: >6.0 MILES
   CLOUDS: CLEAR
WX BECOMING FROM 15Z TO 17Z
   WINDS: 260 AT 12 GUST 22
   WEATHER: RMK_NXT_FCST_BY
   COMMENTS: 300000Z= 

INITIAL WX
   WEATHER: TAF_AMD_LELL
   COMMENTS: 292013Z 2915/3015 CNL= 

INITIAL WX
   WEATHER: TAF_AMD_CYZR
   COMMENTS: 292013Z 2920/3002 20012KT P6SM SCT050 BKN120 
NEW WX STARTING: 21:00Z
   WINDS: 230 AT 12
   VISIBILITY: >6.0 MILES
   WEATHER: -SHRA
   CLOUDS: 40 BKN
   CLOUDS: 100 BKN
TEMPORARY WX FROM 21Z TO 23Z
   WIND: VARIABLE AT 20 GUST 30
   VISIBILITY: 1.0 MILES
   WEATHER: +TSRA_BR
   CLOUDS: 20 BKN
   CLOUDS: 40 OVC WITH CB
30% PROBABILITY OF WX FROM 23Z TO 01Z
   WIND: VARIABLE AT 15 GUST 25
   VISIBILITY: 2.0 MILES
   WEATHER: TSRA_BR
   CLOUDS: 20 BKN
   CLOUDS: 40 OVC WITH CB
NEW WX STARTING: 01:00Z
   WINDS: 270 AT 12
   VISIBILITY: >6.0 MILES
   CLOUDS: 40 BKN
   COMMENTS: RMK FCST BASED ON AUTO OBS. NXT FCST WILL BE ISSUED AT 301145Z= 

PIREP - Pilot Weather Report
ESPA - Lulea-Kallax,
Updated at 5:50 AM GMT on August 01, 2015 (7:50 AM CEST):
No PIREP is currently available for this location.
AIRMET - Airmens Meteorological Information
ESPA - Lulea-Kallax,
Updated at 5:50 AM GMT on August 01, 2015 (7:50 AM CEST):
No AIRMET is currently available for this location.
SIGMET - Significant Meteorological Information
ESPA - Lulea-Kallax,
Updated at 5:50 AM GMT on August 01, 2015 (7:50 AM CEST):
No SIGMET is currently available for this location.
NOTAM - Notice to Airmen
ESPA - Lulea-Kallax,
Updated at 5:50 AM GMT on August 01, 2015 (7:50 AM CEST):
No NOTAM is currently available for this location.
Forecast Area
ESPA - Lulea-Kallax,
Updated at 5:50 AM GMT on August 01, 2015 (7:50 AM CEST):
No NOTAM is currently available for this location.
Aviation Weather Maps